createdAt,value
2023-05-17T00:00:22.650Z,84.62
2023-05-17T00:01:45.713Z,84.68
2023-05-17T00:02:48.641Z,84.70
2023-05-17T00:03:54.406Z,84.86
2023-05-17T00:04:57.849Z,84.99
2023-05-17T00:06:00.847Z,84.95
2023-05-17T00:07:03.947Z,85.02
2023-05-17T00:08:06.870Z,85.05
2023-05-17T00:09:10.203Z,85.19
2023-05-17T00:10:13.267Z,85.19
2023-05-17T00:11:16.158Z,85.24
2023-05-17T00:12:19.053Z,85.24
2023-05-17T00:13:22.382Z,85.31
2023-05-17T00:14:25.282Z,85.34
2023-05-17T00:15:28.544Z,85.37
2023-05-17T00:16:31.690Z,85.46
2023-05-17T00:17:34.817Z,85.43
2023-05-17T00:18:38.250Z,85.51
2023-05-17T00:19:41.272Z,85.54
2023-05-17T00:20:44.236Z,85.37
2023-05-17T00:21:47.203Z,85.28
2023-05-17T00:22:50.104Z,85.42
2023-05-17T00:23:53.038Z,85.42
2023-05-17T00:24:56.138Z,85.41
2023-05-17T00:25:58.980Z,85.37
2023-05-17T00:27:01.936Z,85.45
2023-05-17T00:28:05.137Z,85.40
2023-05-17T00:29:08.083Z,85.43
2023-05-17T00:30:11.749Z,85.48
2023-05-17T00:31:14.722Z,85.53
2023-05-17T00:32:17.714Z,85.67
2023-05-17T00:33:21.153Z,85.49
2023-05-17T00:34:24.133Z,85.52
2023-05-17T00:35:27.377Z,85.66
2023-05-17T00:36:30.998Z,85.63
2023-05-17T00:37:33.881Z,85.68
2023-05-17T00:38:36.808Z,85.76
2023-05-17T00:39:39.689Z,85.73
2023-05-17T00:40:42.641Z,85.70
2023-05-17T00:41:46.264Z,85.71
2023-05-17T00:42:49.168Z,85.71
2023-05-17T00:43:52.140Z,85.86
2023-05-17T00:44:55.051Z,85.84
2023-05-17T00:45:58.237Z,85.82
2023-05-17T00:47:01.168Z,85.84
2023-05-17T00:48:04.586Z,85.87
2023-05-17T00:49:07.616Z,85.92
2023-05-17T00:50:12.137Z,85.97
2023-05-17T00:51:16.734Z,85.97
2023-05-17T00:52:20.029Z,86.01
2023-05-17T00:53:23.320Z,86.03
2023-05-17T00:54:26.660Z,86.05
2023-05-17T00:55:30.664Z,86.12
2023-05-17T00:56:33.791Z,86.20
2023-05-17T00:57:38.038Z,86.20
2023-05-17T00:58:41.098Z,86.20
2023-05-17T00:59:47.719Z,86.25
2023-05-17T01:00:51.134Z,86.33
2023-05-17T01:01:54.788Z,86.36
2023-05-17T01:02:57.891Z,86.40
2023-05-17T01:04:01.014Z,86.41
2023-05-17T01:05:04.868Z,86.44
2023-05-17T01:06:07.956Z,86.47
2023-05-17T01:07:11.877Z,86.46
2023-05-17T01:08:14.824Z,86.50
2023-05-17T01:09:18.354Z,86.58
2023-05-17T01:10:21.552Z,86.59
2023-05-17T01:11:45.133Z,86.64
2023-05-17T01:13:06.530Z,86.76
2023-05-17T01:14:24.607Z,86.86
2023-05-17T01:15:33.204Z,86.88
2023-05-17T01:16:54.272Z,86.91
2023-05-17T01:18:09.486Z,87.01
2023-05-17T01:19:36.750Z,87.01
2023-05-17T01:20:44.322Z,87.02
2023-05-17T01:21:57.236Z,87.10
2023-05-17T01:23:24.336Z,87.19
2023-05-17T01:24:30.372Z,87.29
2023-05-17T01:25:47.229Z,87.25
2023-05-17T01:26:51.242Z,87.28
2023-05-17T01:27:58.660Z,87.39
2023-05-17T01:29:02.836Z,87.44
2023-05-17T01:30:07.569Z,87.44
2023-05-17T01:31:11.483Z,87.48
2023-05-17T01:32:16.377Z,87.48
2023-05-17T01:33:20.459Z,87.50
2023-05-17T01:34:27.840Z,87.50
2023-05-17T01:35:31.023Z,87.57
2023-05-17T01:36:34.135Z,87.56
2023-05-17T01:37:40.922Z,87.67
2023-05-17T01:38:43.879Z,87.68
2023-05-17T01:39:47.116Z,87.69
2023-05-17T01:41:12.892Z,87.74
2023-05-17T01:42:27.004Z,87.81
2023-05-17T01:43:41.776Z,87.86
2023-05-17T01:45:08.309Z,87.87
2023-05-17T01:46:36.771Z,87.99
2023-05-17T01:48:17.226Z,88.07
2023-05-17T01:49:31.261Z,88.17
2023-05-17T01:50:36.429Z,88.22
2023-05-17T01:51:54.845Z,88.25
2023-05-17T01:53:10.987Z,88.37
2023-05-17T01:54:23.687Z,88.40
2023-05-17T01:55:53.637Z,88.48
2023-05-17T01:56:59.647Z,88.56
2023-05-17T01:58:06.487Z,88.51
2023-05-17T01:59:13.076Z,88.57
2023-05-17T02:00:17.730Z,88.65
2023-05-17T02:01:24.383Z,88.75
2023-05-17T02:02:27.419Z,88.77
2023-05-17T02:03:30.899Z,88.76
2023-05-17T02:04:34.290Z,88.77
2023-05-17T02:05:37.767Z,88.81
2023-05-17T02:06:41.653Z,88.82
2023-05-17T02:07:44.612Z,88.83
2023-05-17T02:08:47.564Z,88.85
2023-05-17T02:09:50.650Z,88.85
2023-05-17T02:10:53.644Z,88.78
2023-05-17T02:11:57.114Z,88.77
2023-05-17T02:13:00.687Z,88.89
2023-05-17T02:14:03.620Z,88.97
2023-05-17T02:15:08.482Z,89.01
2023-05-17T02:16:12.047Z,89.08
2023-05-17T02:17:14.975Z,89.13
2023-05-17T02:18:22.038Z,89.17
2023-05-17T02:19:25.163Z,89.17
2023-05-17T02:20:28.163Z,89.21
2023-05-17T02:21:31.085Z,89.23
2023-05-17T02:22:34.044Z,89.29
2023-05-17T02:23:36.992Z,89.24
2023-05-17T02:24:39.926Z,89.20
2023-05-17T02:25:42.842Z,89.23
2023-05-17T02:26:46.042Z,89.33
2023-05-17T02:27:48.937Z,89.26
2023-05-17T02:28:51.915Z,89.25
2023-05-17T02:29:54.895Z,89.35
2023-05-17T02:30:57.910Z,89.47
2023-05-17T02:32:01.054Z,89.49
2023-05-17T02:33:04.154Z,89.48
2023-05-17T02:34:07.329Z,89.53
2023-05-17T02:35:10.261Z,89.63
2023-05-17T02:36:13.203Z,89.63
2023-05-17T02:37:16.087Z,89.67
2023-05-17T02:38:20.669Z,89.68
2023-05-17T02:39:23.962Z,89.70
2023-05-17T02:40:27.009Z,89.67
2023-05-17T02:41:29.963Z,89.74
2023-05-17T02:42:34.496Z,89.84
2023-05-17T02:43:37.437Z,89.88
2023-05-17T02:44:40.384Z,89.92
2023-05-17T02:45:44.027Z,89.89
2023-05-17T02:46:49.123Z,89.95
2023-05-17T02:47:52.106Z,90.02
2023-05-17T02:48:55.028Z,90.04
2023-05-17T02:49:57.931Z,89.94
2023-05-17T02:51:01.241Z,90.02
2023-05-17T02:52:04.437Z,90.08
2023-05-17T02:53:07.514Z,90.16
2023-05-17T02:54:10.568Z,90.19
2023-05-17T02:55:13.570Z,90.17
2023-05-17T02:56:16.527Z,90.24
2023-05-17T02:57:19.704Z,90.28
2023-05-17T02:58:22.708Z,90.33
2023-05-17T02:59:25.727Z,90.35
2023-05-17T03:00:28.639Z,90.38
2023-05-17T03:01:31.698Z,90.33
2023-05-17T03:02:34.840Z,90.36
2023-05-17T03:03:38.327Z,90.40
2023-05-17T03:04:42.137Z,90.47
2023-05-17T03:05:45.491Z,90.53
2023-05-17T03:06:48.643Z,90.52
2023-05-17T03:07:51.773Z,90.55
2023-05-17T03:08:54.736Z,90.55
2023-05-17T03:09:58.093Z,90.58
2023-05-17T03:11:03.967Z,90.59
2023-05-17T03:12:07.621Z,90.64
2023-05-17T03:13:11.234Z,90.64
2023-05-17T03:14:16.670Z,90.70
2023-05-17T03:15:19.834Z,90.74
2023-05-17T03:16:23.034Z,90.80
2023-05-17T03:17:27.395Z,90.79
2023-05-17T03:18:30.634Z,90.80
2023-05-17T03:19:33.865Z,90.82
2023-05-17T03:20:36.855Z,90.81
2023-05-17T03:21:40.258Z,90.85
2023-05-17T03:22:43.153Z,90.87
2023-05-17T03:23:46.052Z,90.88
2023-05-17T03:24:49.028Z,90.90
2023-05-17T03:25:52.004Z,90.96
2023-05-17T03:26:55.163Z,91.04
2023-05-17T03:27:58.820Z,91.07
2023-05-17T03:29:01.991Z,91.09
2023-05-17T03:30:05.641Z,91.01
2023-05-17T03:31:09.742Z,91.07
2023-05-17T03:32:12.976Z,91.13
2023-05-17T03:33:16.196Z,91.17
2023-05-17T03:34:19.688Z,91.20
2023-05-17T03:35:22.772Z,91.22
2023-05-17T03:36:28.880Z,91.25
2023-05-17T03:37:31.860Z,91.22
2023-05-17T03:38:35.052Z,91.25
2023-05-17T03:39:38.176Z,91.22
2023-05-17T03:40:41.592Z,91.32
2023-05-17T03:41:44.893Z,91.34
2023-05-17T03:42:49.042Z,91.31
2023-05-17T03:43:52.110Z,91.28
2023-05-17T03:44:56.431Z,91.31
2023-05-17T03:46:00.011Z,91.28
2023-05-17T03:47:04.657Z,91.33
2023-05-17T03:48:08.125Z,91.34
2023-05-17T03:49:11.935Z,91.22
2023-05-17T03:50:15.383Z,91.36
2023-05-17T03:51:18.642Z,91.29
2023-05-17T03:52:21.641Z,91.28
2023-05-17T03:53:24.700Z,91.34
2023-05-17T03:54:28.338Z,91.33
2023-05-17T03:55:31.582Z,91.35
2023-05-17T03:56:34.795Z,91.38
2023-05-17T03:57:38.049Z,91.50
2023-05-17T03:58:41.106Z,91.59
2023-05-17T03:59:44.002Z,91.71
2023-05-17T04:00:47.349Z,91.78
2023-05-17T04:01:51.194Z,91.80
2023-05-17T04:02:54.518Z,91.74
2023-05-17T04:03:57.556Z,91.81
2023-05-17T04:05:00.543Z,91.83
2023-05-17T04:06:08.020Z,91.85
2023-05-17T04:07:11.911Z,91.94
2023-05-17T04:08:14.944Z,91.96
2023-05-17T04:09:18.235Z,92.00
2023-05-17T04:10:21.156Z,92.03
2023-05-17T04:11:26.737Z,92.04
2023-05-17T04:12:30.474Z,91.99
2023-05-17T04:13:33.387Z,92.00
2023-05-17T04:14:39.929Z,92.04
2023-05-17T04:15:42.894Z,92.08
2023-05-17T04:16:45.819Z,92.04
2023-05-17T04:17:48.923Z,92.07
2023-05-17T04:18:53.538Z,92.05
2023-05-17T04:19:57.178Z,92.01
2023-05-17T04:21:00.523Z,92.04
2023-05-17T04:22:03.471Z,92.11
2023-05-17T04:23:06.631Z,92.17
2023-05-17T04:24:10.197Z,92.20
2023-05-17T04:25:13.185Z,92.18
2023-05-17T04:26:16.691Z,92.23
2023-05-17T04:27:19.650Z,92.29
2023-05-17T04:28:22.702Z,92.31
2023-05-17T04:29:26.604Z,92.37
2023-05-17T04:30:29.538Z,92.25
2023-05-17T04:31:33.008Z,92.28
2023-05-17T04:32:36.604Z,92.27
2023-05-17T04:33:39.638Z,92.25
2023-05-17T04:34:43.372Z,92.23
2023-05-17T04:35:46.859Z,92.27
2023-05-17T04:36:49.892Z,92.26
2023-05-17T04:37:53.823Z,92.26
2023-05-17T04:38:58.217Z,92.32
2023-05-17T04:40:03.842Z,92.39
2023-05-17T04:41:09.461Z,92.43
2023-05-17T04:42:13.696Z,92.38
2023-05-17T04:43:20.796Z,92.37
2023-05-17T04:44:23.735Z,92.41
2023-05-17T04:45:27.179Z,92.45
2023-05-17T04:46:30.645Z,92.50
2023-05-17T04:47:33.629Z,92.32
2023-05-17T04:48:37.080Z,92.36
2023-05-17T04:49:40.074Z,92.37
2023-05-17T04:50:46.112Z,92.38
2023-05-17T04:51:49.244Z,92.51
2023-05-17T04:52:52.662Z,92.48
2023-05-17T04:53:55.766Z,92.57
2023-05-17T04:54:58.835Z,92.61
2023-05-17T04:56:02.338Z,92.61
2023-05-17T04:57:05.558Z,92.66
2023-05-17T04:58:46.704Z,92.76
2023-05-17T04:59:49.693Z,92.73
2023-05-17T05:00:52.830Z,92.77
2023-05-17T05:02:00.203Z,92.75
2023-05-17T05:03:05.123Z,92.82
2023-05-17T05:04:08.914Z,92.86
2023-05-17T05:05:15.772Z,92.91
2023-05-17T05:06:19.531Z,92.96
2023-05-17T05:07:22.718Z,92.93
2023-05-17T05:08:25.723Z,92.92
2023-05-17T05:09:28.975Z,92.83
2023-05-17T05:10:32.074Z,92.91
2023-05-17T05:11:35.377Z,93.01
2023-05-17T05:12:38.495Z,92.98
2023-05-17T05:13:42.541Z,92.94
2023-05-17T05:14:45.710Z,92.94
2023-05-17T05:15:49.065Z,92.88
2023-05-17T05:16:52.157Z,92.99
2023-05-17T05:17:55.288Z,93.10
2023-05-17T05:18:58.536Z,93.12
2023-05-17T05:20:01.786Z,93.17
2023-05-17T05:21:05.083Z,93.14
2023-05-17T05:22:08.124Z,93.13
2023-05-17T05:23:12.051Z,93.19
2023-05-17T05:24:15.650Z,93.22
2023-05-17T05:25:18.799Z,93.22
2023-05-17T05:26:22.401Z,93.28
2023-05-17T05:27:25.763Z,93.28
2023-05-17T05:28:28.923Z,93.27
2023-05-17T05:29:31.801Z,93.03
2023-05-17T05:30:35.821Z,93.00
2023-05-17T05:31:38.777Z,93.12
2023-05-17T05:32:42.663Z,93.10
2023-05-17T05:33:45.972Z,93.11
2023-05-17T05:34:49.244Z,93.14
2023-05-17T05:35:52.676Z,93.17
2023-05-17T05:36:55.597Z,93.15
2023-05-17T05:37:59.902Z,93.11
2023-05-17T05:39:03.064Z,93.10
2023-05-17T05:40:09.060Z,93.14
2023-05-17T05:41:12.415Z,93.08
2023-05-17T05:42:17.217Z,93.10
2023-05-17T05:43:20.175Z,93.19
2023-05-17T05:44:24.618Z,93.20
2023-05-17T05:45:28.891Z,93.20
2023-05-17T05:46:34.252Z,93.23
2023-05-17T05:47:38.472Z,93.23
2023-05-17T05:48:42.125Z,93.26
2023-05-17T05:49:46.005Z,93.30
2023-05-17T05:50:49.271Z,93.13
2023-05-17T05:51:53.255Z,93.17
2023-05-17T05:53:07.122Z,93.20
2023-05-17T05:54:17.966Z,93.22
2023-05-17T05:55:21.120Z,93.18
2023-05-17T05:56:25.812Z,93.03
2023-05-17T05:57:28.764Z,92.94
2023-05-17T05:58:32.228Z,93.01
2023-05-17T05:59:36.224Z,92.94
2023-05-17T06:00:39.225Z,93.03
2023-05-17T06:01:42.071Z,93.16
2023-05-17T06:02:44.990Z,93.22
2023-05-17T06:03:47.946Z,93.25
2023-05-17T06:04:50.847Z,93.34
2023-05-17T06:05:54.367Z,93.33
2023-05-17T06:06:57.397Z,93.36
2023-05-17T06:08:00.531Z,93.40
2023-05-17T06:09:04.292Z,93.42
2023-05-17T06:10:07.809Z,93.38
2023-05-17T06:11:10.831Z,93.25
2023-05-17T06:12:13.808Z,93.21
2023-05-17T06:13:16.840Z,93.25
2023-05-17T06:14:19.867Z,93.25
2023-05-17T06:15:22.759Z,93.38
2023-05-17T06:16:25.675Z,93.45
2023-05-17T06:17:28.633Z,93.36
2023-05-17T06:18:32.240Z,93.35
2023-05-17T06:19:35.375Z,93.35
2023-05-17T06:20:38.427Z,93.43
2023-05-17T06:21:41.392Z,93.34
2023-05-17T06:22:44.852Z,93.33
2023-05-17T06:23:47.720Z,93.39
2023-05-17T06:24:50.832Z,93.44
2023-05-17T06:25:53.877Z,93.42
2023-05-17T06:26:56.772Z,93.29
2023-05-17T06:28:02.682Z,93.34
2023-05-17T06:29:05.752Z,93.45
2023-05-17T06:30:09.866Z,93.45
2023-05-17T06:31:12.829Z,93.48
2023-05-17T06:32:15.904Z,93.58
2023-05-17T06:33:19.020Z,93.61
2023-05-17T06:34:22.105Z,93.69
2023-05-17T06:35:24.993Z,93.87
2023-05-17T06:36:27.955Z,93.84
2023-05-17T06:37:31.098Z,93.69
2023-05-17T06:38:34.011Z,93.77
2023-05-17T06:39:36.998Z,93.80
2023-05-17T06:40:39.996Z,93.80
2023-05-17T06:41:43.260Z,93.93
2023-05-17T06:42:46.187Z,93.86
2023-05-17T06:43:49.080Z,93.78
2023-05-17T06:44:51.982Z,93.79
2023-05-17T06:45:55.073Z,93.75
2023-05-17T06:46:58.008Z,93.81
2023-05-17T06:48:01.033Z,93.85
2023-05-17T06:49:04.573Z,93.91
2023-05-17T06:50:08.847Z,94.06
2023-05-17T06:51:11.879Z,94.04
2023-05-17T06:52:14.780Z,94.08
2023-05-17T06:53:17.900Z,94.10
2023-05-17T06:54:20.913Z,94.17
2023-05-17T06:55:23.851Z,94.10
2023-05-17T06:56:26.943Z,94.13
2023-05-17T06:57:29.840Z,94.23
2023-05-17T06:58:32.831Z,94.27
2023-05-17T06:59:36.797Z,94.25
2023-05-17T07:00:42.382Z,94.15
2023-05-17T07:01:45.629Z,94.18
2023-05-17T07:02:48.630Z,94.09
2023-05-17T07:03:51.712Z,94.16
2023-05-17T07:04:54.658Z,94.17
2023-05-17T07:05:57.670Z,94.25
2023-05-17T07:07:00.568Z,94.30
2023-05-17T07:08:03.708Z,94.36
2023-05-17T07:09:07.218Z,94.41
2023-05-17T07:10:10.314Z,94.36
2023-05-17T07:11:13.377Z,94.41
2023-05-17T07:12:16.438Z,94.39
2023-05-17T07:13:19.763Z,94.42
2023-05-17T07:14:22.776Z,94.29
2023-05-17T07:15:25.885Z,94.35
2023-05-17T07:16:28.874Z,94.43
2023-05-17T07:17:31.923Z,94.40
2023-05-17T07:18:35.269Z,94.33
2023-05-17T07:19:38.387Z,94.43
2023-05-17T07:20:41.542Z,94.56
2023-05-17T07:21:45.440Z,94.62
2023-05-17T07:22:48.518Z,94.72
2023-05-17T07:23:51.760Z,94.66
2023-05-17T07:24:54.750Z,94.62
2023-05-17T07:25:57.668Z,94.57
2023-05-17T07:27:00.558Z,94.42
2023-05-17T07:28:04.744Z,94.40
2023-05-17T07:29:07.723Z,94.35
2023-05-17T07:30:11.884Z,94.36
2023-05-17T07:31:15.471Z,94.47
2023-05-17T07:32:18.360Z,94.50
2023-05-17T07:33:21.416Z,94.57
2023-05-17T07:34:24.320Z,94.51
2023-05-17T07:35:27.605Z,94.46
2023-05-17T07:36:31.207Z,94.48
2023-05-17T07:37:34.226Z,94.50
2023-05-17T07:38:37.418Z,94.52
2023-05-17T07:39:40.498Z,94.47
2023-05-17T07:40:43.905Z,94.45
2023-05-17T07:41:46.816Z,94.43
2023-05-17T07:42:50.285Z,94.50
2023-05-17T07:43:53.376Z,94.43
2023-05-17T07:44:56.401Z,94.42
2023-05-17T07:45:59.262Z,94.49
2023-05-17T07:47:02.312Z,94.46
2023-05-17T07:48:05.563Z,94.52
2023-05-17T07:49:08.634Z,94.53
2023-05-17T07:50:12.159Z,94.63
2023-05-17T07:51:17.918Z,94.60
2023-05-17T07:52:20.839Z,94.57
2023-05-17T07:53:23.714Z,94.63
2023-05-17T07:54:30.059Z,94.64
2023-05-17T07:55:32.967Z,94.71
2023-05-17T07:56:36.200Z,94.64
2023-05-17T07:57:39.220Z,94.75
2023-05-17T07:58:42.118Z,94.75
2023-05-17T07:59:45.074Z,94.64
2023-05-17T08:00:48.611Z,94.63
2023-05-17T08:01:52.458Z,94.59
2023-05-17T08:02:56.829Z,94.64
2023-05-17T08:04:01.921Z,94.74
2023-05-17T08:05:05.474Z,94.77
2023-05-17T08:06:08.612Z,94.66
2023-05-17T08:07:11.685Z,94.64
2023-05-17T08:08:15.606Z,94.50
2023-05-17T08:09:20.041Z,94.50
2023-05-17T08:10:22.988Z,94.51
2023-05-17T08:11:26.032Z,94.58
2023-05-17T08:12:29.207Z,94.60
2023-05-17T08:13:32.124Z,94.56
2023-05-17T08:14:35.490Z,94.71
2023-05-17T08:15:39.159Z,94.71
2023-05-17T08:16:46.170Z,94.73
2023-05-17T08:17:49.197Z,94.67
2023-05-17T08:18:52.386Z,94.52
2023-05-17T08:19:55.557Z,94.57
2023-05-17T08:20:58.700Z,94.58
2023-05-17T08:22:03.788Z,94.61
2023-05-17T08:23:06.702Z,94.58
2023-05-17T08:24:10.068Z,94.59
2023-05-17T08:25:12.988Z,94.54
2023-05-17T08:26:16.030Z,94.48
2023-05-17T08:27:19.073Z,94.67
2023-05-17T08:28:25.265Z,94.55
2023-05-17T08:29:28.215Z,94.68
2023-05-17T08:30:31.601Z,94.78
2023-05-17T08:31:34.532Z,94.36
2023-05-17T08:32:37.968Z,94.23
2023-05-17T08:33:40.982Z,94.37
2023-05-17T08:34:43.916Z,94.41
2023-05-17T08:35:47.211Z,94.35
2023-05-17T08:36:50.606Z,94.35
2023-05-17T08:37:53.897Z,94.34
2023-05-17T08:38:56.832Z,94.16
2023-05-17T08:39:59.819Z,94.20
2023-05-17T08:41:03.293Z,94.40
2023-05-17T08:42:09.460Z,94.56
2023-05-17T08:43:13.962Z,94.49
2023-05-17T08:44:17.343Z,94.14
2023-05-17T08:45:22.199Z,94.04
2023-05-17T08:46:27.035Z,94.05
2023-05-17T08:47:34.053Z,94.00
2023-05-17T08:48:42.081Z,94.19
2023-05-17T08:49:48.162Z,94.11
2023-05-17T08:50:54.355Z,94.11
2023-05-17T08:52:00.822Z,94.21
2023-05-17T08:53:04.388Z,94.19
2023-05-17T08:54:09.295Z,94.32
2023-05-17T08:55:12.588Z,94.47
2023-05-17T08:56:18.691Z,94.54
2023-05-17T08:57:24.436Z,94.46
2023-05-17T08:58:36.073Z,94.35
2023-05-17T08:59:46.840Z,94.45
2023-05-17T09:00:51.821Z,94.47
2023-05-17T09:01:55.347Z,94.38
2023-05-17T09:02:58.308Z,94.42
2023-05-17T09:04:01.477Z,94.36
2023-05-17T09:05:06.850Z,94.10
2023-05-17T09:06:11.163Z,94.14
2023-05-17T09:07:15.287Z,94.17
2023-05-17T09:08:22.587Z,94.07
2023-05-17T09:09:26.436Z,93.96
2023-05-17T09:10:31.666Z,93.82
2023-05-17T09:11:35.087Z,94.00
2023-05-17T09:12:38.013Z,94.18
2023-05-17T09:13:41.787Z,94.17
2023-05-17T09:14:44.740Z,94.13
2023-05-17T09:15:49.562Z,94.33
2023-05-17T09:16:57.697Z,94.36
2023-05-17T09:18:01.434Z,94.28
2023-05-17T09:19:06.374Z,94.23
2023-05-17T09:20:11.094Z,94.30
2023-05-17T09:21:14.116Z,94.35
2023-05-17T09:22:20.114Z,94.47
2023-05-17T09:23:23.427Z,94.57
2023-05-17T09:24:30.473Z,94.50
2023-05-17T09:25:33.772Z,94.39
2023-05-17T09:26:44.616Z,94.41
2023-05-17T09:27:47.593Z,94.40
2023-05-17T09:28:53.528Z,94.36
2023-05-17T09:29:56.421Z,94.43
2023-05-17T09:31:06.945Z,94.24
2023-05-17T09:32:13.034Z,94.03
2023-05-17T09:33:18.583Z,94.10
2023-05-17T09:34:25.001Z,94.19
2023-05-17T09:35:30.281Z,94.18
2023-05-17T09:36:33.828Z,94.19
2023-05-17T09:37:38.983Z,94.26
2023-05-17T09:38:42.499Z,94.25
2023-05-17T09:39:47.623Z,94.08
2023-05-17T09:40:50.806Z,94.15
2023-05-17T09:41:57.292Z,94.32
2023-05-17T09:43:02.051Z,94.25
2023-05-17T09:44:11.938Z,94.14
2023-05-17T09:45:21.750Z,94.14
2023-05-17T09:46:24.586Z,94.35
2023-05-17T09:47:30.023Z,94.50
2023-05-17T09:48:33.248Z,94.28
2023-05-17T09:49:36.501Z,94.11
2023-05-17T09:50:50.433Z,94.07
2023-05-17T09:51:53.329Z,94.26
2023-05-17T09:52:56.249Z,94.35
2023-05-17T09:53:59.686Z,94.41
2023-05-17T09:55:02.667Z,94.47
2023-05-17T09:56:07.047Z,94.57
2023-05-17T09:57:10.536Z,94.48
2023-05-17T09:58:14.156Z,94.32
2023-05-17T09:59:17.300Z,94.35
2023-05-17T10:00:21.060Z,94.41
2023-05-17T10:01:27.939Z,94.29
2023-05-17T10:02:35.498Z,94.17
2023-05-17T10:03:39.323Z,94.08
2023-05-17T10:04:43.320Z,94.02
2023-05-17T10:05:47.421Z,94.27
2023-05-17T10:06:52.620Z,94.22
2023-05-17T10:07:57.086Z,94.28
2023-05-17T10:09:01.405Z,94.35
2023-05-17T10:10:05.484Z,94.24
2023-05-17T10:11:10.188Z,94.26
2023-05-17T10:12:17.447Z,94.25
2023-05-17T10:13:24.981Z,94.23
2023-05-17T10:14:32.549Z,94.12
2023-05-17T10:15:36.969Z,94.16
2023-05-17T10:16:40.380Z,94.07
2023-05-17T10:17:45.669Z,93.88
2023-05-17T10:18:49.698Z,93.77
2023-05-17T10:19:53.446Z,93.93
2023-05-17T10:20:57.186Z,93.93
2023-05-17T10:22:11.632Z,93.97
2023-05-17T10:23:26.780Z,94.19
2023-05-17T10:24:31.522Z,94.25
2023-05-17T10:25:35.278Z,94.26
2023-05-17T10:26:38.822Z,94.14
2023-05-17T10:27:42.045Z,94.13
2023-05-17T10:28:46.521Z,94.20
2023-05-17T10:29:50.936Z,93.95
2023-05-17T10:30:55.058Z,93.83
2023-05-17T10:31:58.900Z,93.99
2023-05-17T10:33:03.262Z,94.05
2023-05-17T10:34:09.105Z,94.08
2023-05-17T10:35:15.377Z,94.02
2023-05-17T10:36:18.647Z,94.13
2023-05-17T10:37:24.445Z,94.35
2023-05-17T10:38:38.606Z,94.43
2023-05-17T10:39:46.959Z,94.50
2023-05-17T10:40:51.814Z,94.62
2023-05-17T10:42:10.710Z,94.95
2023-05-17T10:43:18.782Z,94.95
2023-05-17T10:44:22.174Z,94.95
2023-05-17T10:45:27.470Z,94.76
2023-05-17T10:46:31.541Z,94.70
2023-05-17T10:47:34.782Z,94.45
2023-05-17T10:48:39.417Z,94.41
2023-05-17T10:49:48.003Z,94.28
2023-05-17T10:51:01.143Z,94.21
2023-05-17T10:52:14.239Z,93.90
2023-05-17T10:53:18.462Z,94.07
2023-05-17T10:54:34.429Z,94.20
2023-05-17T10:55:44.093Z,94.37
2023-05-17T10:57:06.474Z,94.31
2023-05-17T10:58:10.864Z,94.21
2023-05-17T10:59:22.140Z,94.34
2023-05-17T11:00:29.491Z,94.20
2023-05-17T11:01:57.895Z,94.08
2023-05-17T11:03:19.816Z,94.00
2023-05-17T11:04:26.317Z,94.08
2023-05-17T11:05:29.598Z,94.28
2023-05-17T11:06:36.642Z,94.19
2023-05-17T11:07:39.928Z,94.20
2023-05-17T11:09:05.773Z,94.27
2023-05-17T11:10:14.219Z,94.35
2023-05-17T11:11:19.009Z,94.34
2023-05-17T11:12:35.480Z,94.35
2023-05-17T11:13:54.885Z,93.89
2023-05-17T11:14:58.599Z,93.89
2023-05-17T11:16:07.855Z,94.04
2023-05-17T11:17:19.221Z,94.04
2023-05-17T11:18:29.689Z,94.02
2023-05-17T11:19:34.609Z,94.23
2023-05-17T11:20:37.995Z,94.16
2023-05-17T11:21:48.664Z,94.07
2023-05-17T11:23:00.600Z,94.17
2023-05-17T11:24:05.509Z,94.11
2023-05-17T11:25:11.750Z,94.16
2023-05-17T11:26:33.939Z,94.32
2023-05-17T11:27:51.952Z,94.45
2023-05-17T11:29:05.348Z,94.52
2023-05-17T11:30:16.037Z,94.40
2023-05-17T11:31:30.860Z,94.39
2023-05-17T11:32:34.112Z,94.47
2023-05-17T11:33:44.371Z,94.19
2023-05-17T11:34:52.543Z,94.39
2023-05-17T11:35:55.987Z,94.62
2023-05-17T11:36:58.978Z,94.52
2023-05-17T11:38:19.037Z,94.52
2023-05-17T11:39:23.819Z,94.50
2023-05-17T11:40:28.370Z,94.54
2023-05-17T11:41:31.992Z,94.66
2023-05-17T11:42:36.497Z,94.66
2023-05-17T11:43:45.897Z,94.54
2023-05-17T11:44:48.881Z,94.63
2023-05-17T11:45:54.117Z,94.43
2023-05-17T11:47:09.669Z,94.50
2023-05-17T11:48:13.939Z,94.57
2023-05-17T11:49:33.981Z,94.48
2023-05-17T11:50:40.130Z,94.61
2023-05-17T11:51:43.341Z,94.64
2023-05-17T11:52:46.460Z,94.81
2023-05-17T11:53:49.757Z,94.61
2023-05-17T11:54:53.026Z,94.50
2023-05-17T11:55:57.547Z,94.54
2023-05-17T11:57:02.940Z,94.57
2023-05-17T11:58:08.507Z,94.85
2023-05-17T11:59:11.630Z,95.00
2023-05-17T12:00:16.751Z,94.99
2023-05-17T12:01:19.807Z,95.03
2023-05-17T12:02:30.339Z,95.03
2023-05-17T12:03:33.836Z,94.94
2023-05-17T12:04:38.185Z,94.96
2023-05-17T12:05:41.422Z,94.99
2023-05-17T12:06:45.159Z,94.80
2023-05-17T12:07:50.301Z,94.95
2023-05-17T12:08:53.309Z,95.31
2023-05-17T12:09:56.301Z,95.35
2023-05-17T12:10:59.381Z,95.17
2023-05-17T12:12:06.092Z,94.76
2023-05-17T12:13:09.760Z,94.78
2023-05-17T12:14:17.392Z,94.78
2023-05-17T12:15:20.583Z,94.88
2023-05-17T12:16:23.914Z,94.96
2023-05-17T12:17:35.770Z,95.02
2023-05-17T12:18:40.243Z,95.04
2023-05-17T12:19:43.419Z,95.10
2023-05-17T12:21:00.379Z,95.21
2023-05-17T12:22:12.929Z,95.08
2023-05-17T12:23:16.114Z,95.16
2023-05-17T12:24:19.453Z,95.23
2023-05-17T12:25:25.640Z,95.31
2023-05-17T12:26:28.671Z,95.28
2023-05-17T12:27:32.227Z,95.29
2023-05-17T12:28:40.047Z,95.47
2023-05-17T12:29:43.359Z,95.48
2023-05-17T12:30:46.712Z,95.50
2023-05-17T12:31:53.238Z,95.55
2023-05-17T12:32:56.686Z,95.56
2023-05-17T12:34:02.581Z,95.51
2023-05-17T12:35:06.238Z,95.49
2023-05-17T12:36:11.608Z,95.28
2023-05-17T12:37:14.639Z,95.29
2023-05-17T12:38:19.454Z,95.24
2023-05-17T12:39:25.793Z,95.17
2023-05-17T12:40:29.424Z,95.17
2023-05-17T12:41:33.135Z,95.25
2023-05-17T12:42:36.079Z,95.40
2023-05-17T12:43:39.989Z,95.33
2023-05-17T12:44:42.971Z,95.10
2023-05-17T12:45:47.861Z,94.95
2023-05-17T12:46:54.226Z,95.17
2023-05-17T12:47:57.457Z,95.14
2023-05-17T12:49:08.417Z,95.24
2023-05-17T12:50:11.643Z,95.37
2023-05-17T12:51:19.355Z,95.38
2023-05-17T12:52:22.304Z,95.05
2023-05-17T12:53:35.871Z,95.04
2023-05-17T12:54:39.724Z,95.04
2023-05-17T12:55:42.990Z,94.95
2023-05-17T12:56:46.643Z,94.92
2023-05-17T12:57:53.628Z,95.05
2023-05-17T12:59:15.465Z,95.00
2023-05-17T13:00:19.781Z,95.00
2023-05-17T13:01:22.729Z,94.94
2023-05-17T13:02:25.770Z,94.74
2023-05-17T13:03:29.382Z,94.78
2023-05-17T13:04:34.527Z,94.89
2023-05-17T13:05:37.777Z,95.07
2023-05-17T13:06:50.241Z,95.06
2023-05-17T13:07:53.555Z,94.99
2023-05-17T13:09:00.251Z,94.89
2023-05-17T13:10:03.195Z,95.05
2023-05-17T13:11:14.818Z,95.13
2023-05-17T13:12:25.088Z,95.09
2023-05-17T13:13:33.729Z,95.17
2023-05-17T13:14:46.016Z,94.99
2023-05-17T13:15:50.180Z,95.03
2023-05-17T13:16:53.288Z,95.10
2023-05-17T13:17:56.755Z,94.97
2023-05-17T13:19:00.277Z,95.08
2023-05-17T13:20:06.435Z,95.09
2023-05-17T13:21:11.000Z,95.04
2023-05-17T13:22:15.634Z,95.00
2023-05-17T13:23:18.562Z,95.08
2023-05-17T13:24:21.556Z,95.13
2023-05-17T13:25:24.497Z,95.30
2023-05-17T13:26:27.469Z,95.47
2023-05-17T13:27:30.567Z,95.35
2023-05-17T13:28:33.484Z,95.42
2023-05-17T13:29:40.710Z,95.32
2023-05-17T13:30:49.991Z,95.43
2023-05-17T13:31:52.879Z,95.56
2023-05-17T13:32:56.461Z,95.69
2023-05-17T13:33:59.730Z,95.60
2023-05-17T13:35:02.876Z,95.40
2023-05-17T13:36:06.557Z,95.40
2023-05-17T13:37:12.182Z,95.38
2023-05-17T13:38:15.801Z,95.39
2023-05-17T13:39:19.665Z,95.29
2023-05-17T13:40:22.712Z,95.10
2023-05-17T13:41:25.608Z,94.95
2023-05-17T13:42:29.175Z,94.98
2023-05-17T13:43:32.188Z,94.94
2023-05-17T13:44:35.334Z,94.92
2023-05-17T13:45:38.342Z,95.30
2023-05-17T13:46:41.340Z,95.24
2023-05-17T13:47:44.359Z,95.14
2023-05-17T13:48:47.547Z,95.01
2023-05-17T13:49:50.527Z,95.04
2023-05-17T13:50:53.614Z,94.67
2023-05-17T13:51:56.943Z,94.62
2023-05-17T13:53:02.301Z,94.73
2023-05-17T13:54:08.633Z,94.70
2023-05-17T13:55:11.499Z,94.31
2023-05-17T13:56:14.417Z,94.18
2023-05-17T13:57:17.511Z,94.14